createdAt,value
2023-01-19T00:00:35.472Z,99938.59
2023-01-19T00:03:04.855Z,99944.63
2023-01-19T00:05:33.792Z,99940.41
2023-01-19T00:08:14.595Z,99942.16
2023-01-19T00:10:51.147Z,99950.69
2023-01-19T00:13:18.039Z,99951.63
2023-01-19T00:15:45.811Z,99955.88
2023-01-19T00:18:12.776Z,99953.31
2023-01-19T00:20:40.874Z,99960.13
2023-01-19T00:23:08.799Z,99970.38
2023-01-19T00:25:42.285Z,99962.69
2023-01-19T00:28:11.407Z,99964.34
2023-01-19T00:30:39.373Z,99958.44
2023-01-19T00:33:06.263Z,99952.44
2023-01-19T00:35:34.292Z,99950.59
2023-01-19T00:38:01.946Z,99960.72
2023-01-19T00:40:29.207Z,99955.66
2023-01-19T00:42:56.090Z,99958.19
2023-01-19T00:45:24.368Z,99948.69
2023-01-19T00:47:57.038Z,99951.13
2023-01-19T00:50:26.448Z,99956.16
2023-01-19T00:52:55.186Z,99959.44
2023-01-19T00:55:22.900Z,99952.47
2023-01-19T00:57:50.160Z,99954.94
2023-01-19T01:00:20.125Z,99957.41
2023-01-19T01:02:50.348Z,99962.44
2023-01-19T01:05:18.625Z,99964.91
2023-01-19T01:07:46.923Z,99954.59
2023-01-19T01:10:20.499Z,99957.06
2023-01-19T01:13:20.313Z,99965.56
2023-01-19T01:15:34.933Z,99964.72
2023-01-19T01:18:01.835Z,99956.22
2023-01-19T01:20:30.266Z,99950.03
2023-01-19T01:22:57.695Z,99961.41
2023-01-19T01:25:26.950Z,99964.00
2023-01-19T01:27:55.179Z,99963.19
2023-01-19T01:30:22.993Z,99968.31
2023-01-19T01:32:50.276Z,99963.19
2023-01-19T01:35:17.264Z,99965.84
2023-01-19T01:37:44.214Z,99975.31
2023-01-19T01:40:14.671Z,99972.69
2023-01-19T01:42:42.509Z,99971.03
2023-01-19T01:45:33.463Z,99979.47
2023-01-19T01:48:09.064Z,99968.34
2023-01-19T01:51:02.877Z,99968.31
2023-01-19T01:53:32.447Z,99971.63
2023-01-19T01:56:01.262Z,99967.22
2023-01-19T01:58:28.333Z,99978.31
2023-01-19T02:01:14.170Z,99973.94
2023-01-19T02:03:41.225Z,99955.84
2023-01-19T02:06:08.407Z,99964.53
2023-01-19T02:09:06.602Z,99974.19
2023-01-19T02:11:54.454Z,99983.59
2023-01-19T02:14:21.345Z,99982.72
2023-01-19T02:16:48.658Z,99988.81
2023-01-19T02:19:25.822Z,99988.00
2023-01-19T02:21:58.985Z,99993.94
2023-01-19T02:24:27.037Z,99991.50
2023-01-19T02:26:54.848Z,99986.38
2023-01-19T02:29:25.061Z,99996.63
2023-01-19T02:31:52.788Z,99992.31
2023-01-19T02:34:22.607Z,99987.00
2023-01-19T02:36:55.176Z,99985.22
2023-01-19T02:40:02.312Z,99994.81
2023-01-19T02:42:40.706Z,99994.75
2023-01-19T02:45:09.585Z,99995.63
2023-01-19T02:47:44.116Z,99986.03
2023-01-19T02:50:44.270Z,99989.63
2023-01-19T02:53:49.849Z,99985.28
2023-01-19T02:56:50.445Z,99993.81
2023-01-19T02:59:57.767Z,99991.25
2023-01-19T03:02:52.223Z,99986.91
2023-01-19T03:05:45.290Z,99985.28
2023-01-19T03:08:54.849Z,99986.16
2023-01-19T03:11:28.382Z,99973.09
2023-01-19T03:14:02.770Z,99987.84
2023-01-19T03:16:39.602Z,99973.34
2023-01-19T03:19:11.989Z,99971.66
2023-01-19T03:21:42.829Z,99954.38
2023-01-19T03:24:13.820Z,99980.16
2023-01-19T03:26:47.551Z,99977.53
2023-01-19T03:29:16.095Z,99986.97
2023-01-19T03:31:46.560Z,99993.78
2023-01-19T03:34:16.988Z,99986.13
2023-01-19T03:36:51.913Z,100004.03
2023-01-19T03:39:24.176Z,99989.53
2023-01-19T03:41:57.759Z,99990.47
2023-01-19T03:44:27.648Z,99981.09
2023-01-19T03:46:55.296Z,99990.47
2023-01-19T03:49:22.233Z,99988.78
2023-01-19T03:51:49.181Z,99981.88
2023-01-19T03:54:16.084Z,99990.56
2023-01-19T03:56:44.564Z,99990.56
2023-01-19T03:59:11.436Z,99988.88
2023-01-19T04:01:38.428Z,99988.94
2023-01-19T04:04:05.365Z,99986.31
2023-01-19T04:06:32.243Z,99979.50
2023-01-19T04:08:59.143Z,99987.25
2023-01-19T04:11:26.047Z,99971.84
2023-01-19T04:13:52.933Z,99971.91
2023-01-19T04:16:21.231Z,99974.53
2023-01-19T04:18:48.590Z,99972.88
2023-01-19T04:21:15.910Z,99968.66
2023-01-19T04:23:44.387Z,99972.09
2023-01-19T04:26:11.322Z,99973.00
2023-01-19T04:28:38.817Z,99971.31
2023-01-19T04:31:07.864Z,99955.72
2023-01-19T04:33:34.874Z,99968.69
2023-01-19T04:36:02.149Z,99968.84
2023-01-19T04:38:29.104Z,99971.41
2023-01-19T04:40:55.999Z,99960.25
2023-01-19T04:43:23.872Z,99963.78
2023-01-19T04:45:51.310Z,99961.28
2023-01-19T04:48:18.917Z,99962.09
2023-01-19T04:50:46.302Z,99962.97
2023-01-19T04:53:13.765Z,99960.41
2023-01-19T04:55:41.158Z,99967.25
2023-01-19T04:58:08.298Z,99964.69
2023-01-19T05:00:35.267Z,99958.63
2023-01-19T05:03:02.669Z,99969.81
2023-01-19T05:05:30.165Z,99975.75
2023-01-19T05:07:57.065Z,99976.59
2023-01-19T05:10:23.995Z,99973.97
2023-01-19T05:12:51.402Z,99975.56
2023-01-19T05:15:18.533Z,99977.19
2023-01-19T05:17:46.624Z,99975.41
2023-01-19T05:20:16.196Z,99967.53
2023-01-19T05:22:48.858Z,99973.63
2023-01-19T05:25:15.863Z,99978.81
2023-01-19T05:27:43.109Z,99994.16
2023-01-19T05:30:11.307Z,99977.97
2023-01-19T05:32:38.239Z,99981.47
2023-01-19T05:35:06.022Z,99982.34
2023-01-19T05:37:32.937Z,99978.16
2023-01-19T05:39:59.845Z,99980.69
2023-01-19T05:42:26.766Z,99988.47
2023-01-19T05:44:53.678Z,99971.97
2023-01-19T05:47:20.556Z,99991.94
2023-01-19T05:49:47.446Z,99986.81
2023-01-19T05:52:14.879Z,99986.81
2023-01-19T05:54:41.764Z,99996.31
2023-01-19T05:57:08.868Z,99993.75
2023-01-19T05:59:35.718Z,99993.75
2023-01-19T06:02:02.820Z,99999.72
2023-01-19T06:04:29.781Z,99995.41
2023-01-19T06:06:56.699Z,99991.97
2023-01-19T06:09:23.671Z,99989.38
2023-01-19T06:11:50.669Z,99997.97
2023-01-19T06:14:17.581Z,99993.75
2023-01-19T06:16:44.487Z,99995.41
2023-01-19T06:19:11.426Z,100005.72
2023-01-19T06:21:38.292Z,99999.72
2023-01-19T06:24:05.766Z,100007.41
2023-01-19T06:26:32.677Z,100007.34
2023-01-19T06:28:59.583Z,100004.78
2023-01-19T06:31:26.651Z,100011.59
2023-01-19T06:33:53.600Z,100011.59
2023-01-19T06:36:20.442Z,100017.56
2023-01-19T06:38:47.317Z,100019.34
2023-01-19T06:41:14.137Z,100021.06
2023-01-19T06:43:41.044Z,100019.34
2023-01-19T06:46:08.353Z,100022.75
2023-01-19T06:48:35.286Z,100036.41
2023-01-19T06:51:02.225Z,100014.91
2023-01-19T06:53:30.191Z,100030.44
2023-01-19T06:56:02.017Z,100038.06
2023-01-19T06:58:31.284Z,100038.91
2023-01-19T07:01:03.639Z,100049.16
2023-01-19T07:03:31.458Z,100044.94
2023-01-19T07:06:00.251Z,100054.34
2023-01-19T07:08:27.088Z,100054.34
2023-01-19T07:11:23.174Z,100066.28
2023-01-19T07:13:51.401Z,100056.91
2023-01-19T07:16:18.806Z,100067.13
2023-01-19T07:18:48.711Z,100064.50
2023-01-19T07:21:15.658Z,100072.19
2023-01-19T07:23:43.426Z,100070.44
2023-01-19T07:26:10.913Z,100081.56
2023-01-19T07:28:37.852Z,100089.22
2023-01-19T07:31:05.175Z,100081.56
2023-01-19T07:33:32.128Z,100086.63
2023-01-19T07:35:59.176Z,100086.75
2023-01-19T07:38:26.063Z,100090.16
2023-01-19T07:41:00.198Z,100088.47
2023-01-19T07:43:27.111Z,100094.47
2023-01-19T07:45:57.928Z,100099.53
2023-01-19T07:48:25.106Z,100099.56
2023-01-19T07:50:51.982Z,100094.34
2023-01-19T07:53:18.981Z,100103.06
2023-01-19T07:55:46.067Z,100108.38
2023-01-19T07:58:12.948Z,100107.59
2023-01-19T08:00:39.923Z,100105.13
2023-01-19T08:03:06.776Z,100110.34
2023-01-19T08:05:33.849Z,100100.16
2023-01-19T08:08:00.769Z,100104.56
2023-01-19T08:10:28.834Z,100110.63
2023-01-19T08:12:57.302Z,100112.41
2023-01-19T08:15:25.111Z,100109.94
2023-01-19T08:18:05.604Z,100117.72
2023-01-19T08:20:32.875Z,100113.56
2023-01-19T08:23:01.289Z,100110.19
2023-01-19T08:25:37.686Z,100117.91
2023-01-19T08:28:06.694Z,100111.16
2023-01-19T08:30:34.322Z,100101.97
2023-01-19T08:33:04.593Z,100102.97
2023-01-19T08:35:36.835Z,100104.78
2023-01-19T08:38:05.464Z,100098.97
2023-01-19T08:40:35.714Z,100104.03
2023-01-19T08:43:07.748Z,100110.41
2023-01-19T08:45:46.466Z,100114.00
2023-01-19T08:48:13.704Z,100115.78
2023-01-19T08:50:40.741Z,100110.88
2023-01-19T08:53:07.954Z,100101.59
2023-01-19T08:55:37.105Z,100105.97
2023-01-19T08:58:05.719Z,100088.19
2023-01-19T09:00:34.405Z,100095.91
2023-01-19T09:03:03.980Z,100095.28
2023-01-19T09:05:37.331Z,100098.88
2023-01-19T09:08:08.122Z,100099.84
2023-01-19T09:10:36.170Z,100099.22
2023-01-19T09:13:05.059Z,100096.91
2023-01-19T09:15:33.996Z,100107.38
2023-01-19T09:18:02.239Z,100112.75
2023-01-19T09:20:31.135Z,100107.81
2023-01-19T09:22:58.545Z,100111.44
2023-01-19T09:25:25.690Z,100110.91
2023-01-19T09:27:52.955Z,100111.13
2023-01-19T09:30:20.169Z,100108.81
2023-01-19T09:32:47.135Z,100106.44
2023-01-19T09:35:14.242Z,100093.78
2023-01-19T09:37:41.089Z,100105.88
2023-01-19T09:40:11.177Z,100098.31
2023-01-19T09:42:51.119Z,100100.97
2023-01-19T09:45:57.751Z,100103.75
2023-01-19T09:48:52.720Z,100108.28
2023-01-19T09:51:35.199Z,100101.56
2023-01-19T09:54:14.478Z,100108.75
2023-01-19T09:56:43.066Z,100104.75
2023-01-19T09:59:31.132Z,100104.19
2023-01-19T10:02:16.937Z,100104.44
2023-01-19T10:04:56.728Z,100096.84
2023-01-19T10:07:54.481Z,100094.56
2023-01-19T10:10:25.586Z,100085.34
2023-01-19T10:13:34.259Z,100091.50
2023-01-19T10:16:21.997Z,100097.66
2023-01-19T10:18:52.015Z,100091.78
2023-01-19T10:21:31.561Z,100095.28
2023-01-19T10:24:18.747Z,100095.38
2023-01-19T10:26:56.703Z,100094.59
2023-01-19T10:29:36.344Z,100083.44
2023-01-19T10:32:19.853Z,100088.66
2023-01-19T10:34:49.168Z,100079.16
2023-01-19T10:37:31.081Z,100087.13
2023-01-19T10:40:17.101Z,100088.03
2023-01-19T10:42:44.033Z,100094.91
2023-01-19T10:45:18.606Z,100087.97
2023-01-19T10:47:47.781Z,100092.22
2023-01-19T10:50:32.487Z,100094.09
2023-01-19T10:53:05.977Z,100094.97
2023-01-19T10:55:39.110Z,100094.94
2023-01-19T10:58:27.888Z,100086.31
2023-01-19T11:00:54.953Z,100092.38
2023-01-19T11:03:31.400Z,100093.25
2023-01-19T11:06:22.943Z,100089.81
2023-01-19T11:08:51.850Z,100093.34
2023-01-19T11:11:23.624Z,100096.00
2023-01-19T11:14:11.174Z,100104.59
2023-01-19T11:16:39.940Z,100090.06
2023-01-19T11:19:20.022Z,100091.91
2023-01-19T11:21:46.907Z,100094.56
2023-01-19T11:24:16.352Z,100101.44
2023-01-19T11:26:49.730Z,100103.28
2023-01-19T11:29:26.852Z,100092.06
2023-01-19T11:31:55.350Z,100095.75
2023-01-19T11:34:26.465Z,100103.53
2023-01-19T11:37:18.139Z,100089.91
2023-01-19T11:39:51.051Z,100080.47
2023-01-19T11:42:19.926Z,100088.31
2023-01-19T11:45:01.099Z,100087.50
2023-01-19T11:47:49.341Z,100078.06
2023-01-19T11:50:31.269Z,100079.03
2023-01-19T11:53:16.693Z,100085.09
2023-01-19T11:55:54.091Z,100074.91
2023-01-19T11:58:21.245Z,100080.09
2023-01-19T12:01:14.530Z,100080.16
2023-01-19T12:04:06.781Z,100080.22
2023-01-19T12:06:39.755Z,100079.41
2023-01-19T12:09:19.613Z,100084.63
2023-01-19T12:12:09.474Z,100078.72
2023-01-19T12:15:10.913Z,100091.63
2023-01-19T12:17:46.264Z,100090.84
2023-01-19T12:20:38.642Z,100085.69
2023-01-19T12:23:31.122Z,100094.38
2023-01-19T12:26:34.687Z,100086.69
2023-01-19T12:29:24.810Z,100081.63
2023-01-19T12:32:13.459Z,100090.44
2023-01-19T12:34:52.295Z,100095.81
2023-01-19T12:37:30.776Z,100096.84
2023-01-19T12:40:14.053Z,100080.63
2023-01-19T12:42:55.375Z,100090.25
2023-01-19T12:45:25.869Z,100084.44
2023-01-19T12:47:56.737Z,100093.13
2023-01-19T12:50:25.911Z,100088.88
2023-01-19T12:53:02.669Z,100098.47
2023-01-19T12:55:40.634Z,100081.19
2023-01-19T12:58:14.992Z,100102.91
2023-01-19T13:00:44.148Z,100112.41
2023-01-19T13:03:16.921Z,100102.94
2023-01-19T13:05:43.697Z,100104.72
2023-01-19T13:08:11.369Z,100105.56
2023-01-19T13:11:02.252Z,100112.44
2023-01-19T13:13:31.132Z,100111.59
2023-01-19T13:16:19.944Z,100111.59
2023-01-19T13:19:07.140Z,100105.66
2023-01-19T13:21:44.693Z,100107.41
2023-01-19T13:24:23.651Z,100112.66
2023-01-19T13:26:50.419Z,100111.84
2023-01-19T13:29:33.918Z,100107.56
2023-01-19T13:32:05.026Z,100114.47
2023-01-19T13:34:42.944Z,100126.50
2023-01-19T13:37:20.006Z,100123.06
2023-01-19T13:39:50.153Z,100124.78
2023-01-19T13:42:23.409Z,100128.19
2023-01-19T13:44:54.513Z,100130.72
2023-01-19T13:47:42.690Z,100135.81
2023-01-19T13:50:24.464Z,100151.22
2023-01-19T13:52:53.950Z,100146.03
2023-01-19T13:55:21.901Z,100136.47
2023-01-19T13:57:50.878Z,100142.41
2023-01-19T14:00:27.184Z,100152.78
2023-01-19T14:03:21.296Z,100149.22
2023-01-19T14:05:52.410Z,100155.94
2023-01-19T14:08:20.623Z,100157.56
2023-01-19T14:11:02.446Z,100162.69
2023-01-19T14:13:34.904Z,100163.56
2023-01-19T14:16:15.695Z,100166.97
2023-01-19T14:18:42.894Z,100174.72
2023-01-19T14:21:15.121Z,100168.66
2023-01-19T14:23:50.921Z,100172.09
2023-01-19T14:26:54.571Z,100172.84
2023-01-19T14:29:38.091Z,100177.06
2023-01-19T14:32:18.390Z,100178.72
2023-01-19T14:35:04.490Z,100181.22
2023-01-19T14:37:35.152Z,100191.53
2023-01-19T14:40:15.228Z,100190.72
2023-01-19T14:42:57.449Z,100202.78
2023-01-19T14:45:30.585Z,100196.78
2023-01-19T14:48:03.244Z,100202.84
2023-01-19T14:50:37.116Z,100202.91
2023-01-19T14:53:16.806Z,100208.91
2023-01-19T14:55:54.506Z,100207.25
2023-01-19T14:58:25.358Z,100212.34
2023-01-19T15:00:55.741Z,100205.47
2023-01-19T15:03:34.891Z,100212.34
2023-01-19T15:06:27.774Z,100216.66
2023-01-19T15:08:55.056Z,100214.97
2023-01-19T15:11:30.387Z,100217.56
2023-01-19T15:13:57.544Z,100225.31
2023-01-19T15:16:26.491Z,100227.03
2023-01-19T15:18:53.652Z,100233.94
2023-01-19T15:21:28.613Z,100233.09
2023-01-19T15:23:55.716Z,100228.69
2023-01-19T15:26:25.618Z,100239.00
2023-01-19T15:28:52.781Z,100227.72
2023-01-19T15:31:23.707Z,100233.00
2023-01-19T15:33:50.781Z,100244.91
2023-01-19T15:36:20.821Z,100239.81
2023-01-19T15:38:50.967Z,100238.09
2023-01-19T15:41:29.974Z,100234.66
2023-01-19T15:43:57.260Z,100239.81
2023-01-19T15:46:25.773Z,100245.00
2023-01-19T15:48:53.887Z,100243.31
2023-01-19T15:51:25.480Z,100247.59
2023-01-19T15:53:53.480Z,100257.09
2023-01-19T15:56:25.534Z,100251.94
2023-01-19T15:58:54.274Z,100253.66
2023-01-19T16:01:24.399Z,100251.91
2023-01-19T16:03:51.383Z,100247.59
2023-01-19T16:06:18.398Z,100249.38
2023-01-19T16:08:45.394Z,100256.25
2023-01-19T16:11:15.678Z,100253.66
2023-01-19T16:13:46.278Z,100258.00
2023-01-19T16:16:20.247Z,100247.72
2023-01-19T16:18:48.663Z,100254.69
2023-01-19T16:21:15.902Z,100252.09
2023-01-19T16:23:42.790Z,100252.09
2023-01-19T16:26:34.394Z,100246.91
2023-01-19T16:29:08.663Z,100245.13
2023-01-19T16:31:37.427Z,100253.72
2023-01-19T16:34:04.352Z,100251.16
2023-01-19T16:36:34.321Z,100254.53
2023-01-19T16:39:05.975Z,100255.44
2023-01-19T16:41:34.596Z,100276.06
2023-01-19T16:44:02.237Z,100265.81
2023-01-19T16:46:35.809Z,100261.50
2023-01-19T16:49:14.712Z,100264.84
2023-01-19T16:51:42.285Z,100271.88
2023-01-19T16:54:13.958Z,100269.25
2023-01-19T16:56:41.446Z,100277.78
2023-01-19T16:59:12.587Z,100271.78
2023-01-19T17:01:40.489Z,100276.81
2023-01-19T17:04:07.626Z,100283.72
2023-01-19T17:06:34.545Z,100278.50
2023-01-19T17:09:01.419Z,100281.88
2023-01-19T17:11:30.563Z,100289.50
2023-01-19T17:14:01.794Z,100276.56
2023-01-19T17:16:31.213Z,100273.06
2023-01-19T17:19:00.156Z,100276.44
2023-01-19T17:21:29.289Z,100275.47
2023-01-19T17:23:57.620Z,100279.72
2023-01-19T17:26:25.968Z,100273.72
2023-01-19T17:28:52.866Z,100278.06
2023-01-19T17:31:22.306Z,100280.56
2023-01-19T17:33:51.213Z,100284.94
2023-01-19T17:36:25.221Z,100271.91
2023-01-19T17:38:53.882Z,100290.03
2023-01-19T17:41:30.624Z,100287.41
2023-01-19T17:43:59.757Z,100291.69
2023-01-19T17:46:28.564Z,100297.66
2023-01-19T17:49:01.730Z,100296.00
2023-01-19T17:51:30.051Z,100305.50
2023-01-19T17:53:57.594Z,100300.63
2023-01-19T17:56:29.545Z,100300.63
2023-01-19T17:58:57.855Z,100303.22
2023-01-19T18:01:27.980Z,100309.16
2023-01-19T18:03:55.479Z,100303.91
2023-01-19T18:06:23.161Z,100305.63
2023-01-19T18:08:50.912Z,100320.19
2023-01-19T18:11:20.155Z,100321.88
2023-01-19T18:13:49.544Z,100322.75
2023-01-19T18:16:21.901Z,100330.53
2023-01-19T18:18:49.713Z,100316.78
2023-01-19T18:21:17.379Z,100334.84
2023-01-19T18:23:45.117Z,100333.16
2023-01-19T18:26:22.625Z,100327.91
2023-01-19T18:28:50.288Z,100341.88
2023-01-19T18:31:19.153Z,100342.81
2023-01-19T18:33:48.037Z,100339.47
2023-01-19T18:36:16.254Z,100354.06
2023-01-19T18:38:43.607Z,100344.69
2023-01-19T18:41:16.711Z,100358.50
2023-01-19T18:43:43.923Z,100367.09
2023-01-19T18:46:11.647Z,100327.47
2023-01-19T18:48:39.652Z,100336.25
2023-01-19T18:51:08.995Z,100337.16
2023-01-19T18:53:36.198Z,100338.84
2023-01-19T18:56:05.711Z,100343.13
2023-01-19T18:58:33.951Z,100341.44
2023-01-19T19:01:01.785Z,100334.44
2023-01-19T19:03:29.396Z,100351.72
2023-01-19T19:05:56.522Z,100353.56
2023-01-19T19:08:23.568Z,100359.59
2023-01-19T19:10:50.481Z,100351.84
2023-01-19T19:13:17.709Z,100352.69
2023-01-19T19:15:44.754Z,100351.84
2023-01-19T19:18:13.853Z,100349.16
2023-01-19T19:20:44.340Z,100356.25
2023-01-19T19:23:11.935Z,100361.31
2023-01-19T19:25:39.077Z,100371.78
2023-01-19T19:28:06.461Z,100363.09
2023-01-19T19:30:35.551Z,100383.72
2023-01-19T19:33:02.832Z,100386.25
2023-01-19T19:35:29.727Z,100384.56
2023-01-19T19:37:57.671Z,100381.13
2023-01-19T19:40:26.559Z,100382.00
2023-01-19T19:42:53.812Z,100388.03
2023-01-19T19:45:20.716Z,100373.97
2023-01-19T19:47:47.658Z,100393.19
2023-01-19T19:50:15.082Z,100398.41
2023-01-19T19:52:43.028Z,100400.16
2023-01-19T19:55:11.149Z,100403.59
2023-01-19T19:57:38.134Z,100406.94
2023-01-19T20:00:06.715Z,100400.09
2023-01-19T20:02:39.247Z,100407.00
2023-01-19T20:05:06.357Z,100413.06
2023-01-19T20:07:33.401Z,100411.22
2023-01-19T20:10:00.276Z,100420.81
2023-01-19T20:12:27.473Z,100420.00
2023-01-19T20:14:54.394Z,100432.97
2023-01-19T20:17:21.334Z,100434.69
2023-01-19T20:19:49.039Z,100431.28
2023-01-19T20:22:16.222Z,100433.88
2023-01-19T20:24:43.298Z,100439.91
2023-01-19T20:27:10.415Z,100437.38
2023-01-19T20:29:37.405Z,100451.13
2023-01-19T20:32:04.360Z,100457.22
2023-01-19T20:34:33.640Z,100451.19
2023-01-19T20:37:01.789Z,100452.84
2023-01-19T20:39:30.231Z,100454.59
2023-01-19T20:41:57.248Z,100464.09
2023-01-19T20:44:26.029Z,100473.56
2023-01-19T20:46:54.132Z,100477.84
2023-01-19T20:49:21.356Z,100480.38
2023-01-19T20:51:48.511Z,100477.00
2023-01-19T20:54:19.127Z,100482.97
2023-01-19T20:56:46.013Z,100486.47
2023-01-19T20:59:13.437Z,100504.53
2023-01-19T21:01:41.170Z,100494.25
2023-01-19T21:04:08.969Z,100495.06
2023-01-19T21:06:36.539Z,100499.34
2023-01-19T21:09:03.961Z,100497.63
2023-01-19T21:11:30.961Z,100508.06
2023-01-19T21:13:57.925Z,100508.06
2023-01-19T21:16:28.326Z,100514.09
2023-01-19T21:18:55.694Z,100511.53
2023-01-19T21:21:30.761Z,100519.25
2023-01-19T21:24:00.734Z,100520.06
2023-01-19T21:26:29.947Z,100520.88
2023-01-19T21:29:01.110Z,100525.28
2023-01-19T21:31:28.717Z,100515.72
2023-01-19T21:33:57.179Z,100525.34
2023-01-19T21:36:24.755Z,100533.97
2023-01-19T21:38:52.291Z,100529.66
2023-01-19T21:41:19.220Z,100535.72
2023-01-19T21:43:46.175Z,100532.28
2023-01-19T21:46:21.181Z,100532.34
2023-01-19T21:48:48.634Z,100542.63
2023-01-19T21:51:15.572Z,100546.88
2023-01-19T21:53:42.672Z,100534.81
2023-01-19T21:56:11.344Z,100546.84
2023-01-19T21:58:38.363Z,100539.84
2023-01-19T22:01:13.541Z,100552.81
2023-01-19T22:03:41.832Z,100544.09
2023-01-19T22:06:12.794Z,100558.78
2023-01-19T22:08:40.067Z,100561.38
2023-01-19T22:11:09.619Z,100561.41
2023-01-19T22:13:40.556Z,100558.72
2023-01-19T22:16:11.319Z,100569.16
2023-01-19T22:18:43.684Z,100580.41
2023-01-19T22:21:21.107Z,100582.97
2023-01-19T22:23:51.055Z,100586.44
2023-01-19T22:26:18.600Z,100582.13
2023-01-19T22:28:45.907Z,100583.91
2023-01-19T22:31:15.739Z,100580.34
2023-01-19T22:33:43.876Z,100584.75
2023-01-19T22:36:22.351Z,100589.97
2023-01-19T22:39:05.051Z,100586.50
2023-01-19T22:41:35.053Z,100595.16
2023-01-19T22:44:08.852Z,100597.78
2023-01-19T22:46:37.430Z,100600.38
2023-01-19T22:49:07.560Z,100608.13
2023-01-19T22:51:35.525Z,100605.56
2023-01-19T22:54:03.041Z,100609.03
2023-01-19T22:56:33.367Z,100603.88
2023-01-19T22:59:02.253Z,100604.72
2023-01-19T23:01:32.989Z,100605.59
2023-01-19T23:04:01.376Z,100608.19
2023-01-19T23:06:32.269Z,100608.19
2023-01-19T23:09:02.451Z,100608.13
2023-01-19T23:11:36.364Z,100606.34
2023-01-19T23:14:04.710Z,100612.34
2023-01-19T23:16:31.598Z,100612.31
2023-01-19T23:18:59.088Z,100615.72
2023-01-19T23:21:31.767Z,100614.75
2023-01-19T23:24:01.846Z,100619.84
2023-01-19T23:26:30.826Z,100614.56
2023-01-19T23:29:00.973Z,100611.84
2023-01-19T23:31:32.378Z,100622.84
2023-01-19T23:34:04.362Z,100626.09
2023-01-19T23:36:34.379Z,100626.75
2023-01-19T23:39:12.469Z,100639.56
2023-01-19T23:41:39.409Z,100649.72
2023-01-19T23:44:06.429Z,100646.19
2023-01-19T23:46:33.505Z,100649.47
2023-01-19T23:49:00.436Z,100654.53
2023-01-19T23:51:30.505Z,100658.69
2023-01-19T23:53:58.693Z,100657.78
2023-01-19T23:56:32.840Z,100663.78
2023-01-19T23:59:06.810Z,100661.09
